sensor_id;sensor_type;location;lat;lon;timestamp;pressure;altitude;pressure_sealevel;temperature;humidity
53011;BME280;42803;55.762;38.084;2023-04-27T00:01:10;98798.63;;;6.90;100.00
53011;BME280;42803;55.762;38.084;2023-04-27T00:03:41;98811.66;;;6.79;100.00
53011;BME280;42803;55.762;38.084;2023-04-27T00:06:12;98814.41;;;6.71;100.00
53011;BME280;42803;55.762;38.084;2023-04-27T00:08:41;98813.88;;;6.75;100.00
53011;BME280;42803;55.762;38.084;2023-04-27T00:11:10;98810.53;;;6.76;100.00
53011;BME280;42803;55.762;38.084;2023-04-27T00:13:39;98807.63;;;6.83;100.00
53011;BME280;42803;55.762;38.084;2023-04-27T00:16:08;98818.66;;;6.80;100.00
53011;BME280;42803;55.762;38.084;2023-04-27T00:18:37;98816.47;;;6.75;100.00
53011;BME280;42803;55.762;38.084;2023-04-27T00:21:09;98813.41;;;6.69;100.00
53011;BME280;42803;55.762;38.084;2023-04-27T00:23:38;98815.44;;;6.73;100.00
53011;BME280;42803;55.762;38.084;2023-04-27T00:26:07;98818.28;;;6.76;100.00
53011;BME280;42803;55.762;38.084;2023-04-27T00:28:38;98821.19;;;6.69;100.00
53011;BME280;42803;55.762;38.084;2023-04-27T00:31:09;98818.03;;;6.73;100.00
53011;BME280;42803;55.762;38.084;2023-04-27T00:33:38;98822.97;;;6.70;100.00
53011;BME280;42803;55.762;38.084;2023-04-27T00:36:09;98828.97;;;6.69;100.00
53011;BME280;42803;55.762;38.084;2023-04-27T00:38:38;98827.22;;;6.79;100.00
53011;BME280;42803;55.762;38.084;2023-04-27T00:41:07;98821.00;;;6.77;100.00
53011;BME280;42803;55.762;38.084;2023-04-27T00:43:41;98824.41;;;6.66;100.00
53011;BME280;42803;55.762;38.084;2023-04-27T00:46:12;98825.56;;;6.70;100.00
53011;BME280;42803;55.762;38.084;2023-04-27T00:48:42;98829.75;;;6.57;100.00
53011;BME280;42803;55.762;38.084;2023-04-27T00:51:12;98833.53;;;6.51;100.00
53011;BME280;42803;55.762;38.084;2023-04-27T00:53:42;98825.41;;;6.46;100.00
53011;BME280;42803;55.762;38.084;2023-04-27T00:56:11;98828.63;;;6.44;100.00
53011;BME280;42803;55.762;38.084;2023-04-27T00:58:40;98834.50;;;6.41;100.00
53011;BME280;42803;55.762;38.084;2023-04-27T01:01:10;98826.31;;;6.37;100.00
53011;BME280;42803;55.762;38.084;2023-04-27T01:03:39;98830.47;;;6.34;100.00
53011;BME280;42803;55.762;38.084;2023-04-27T01:06:08;98823.59;;;6.35;100.00
53011;BME280;42803;55.762;38.084;2023-04-27T01:08:39;98826.72;;;6.31;100.00
53011;BME280;42803;55.762;38.084;2023-04-27T01:11:08;98835.41;;;6.31;100.00
53011;BME280;42803;55.762;38.084;2023-04-27T01:13:39;98837.56;;;6.37;100.00
53011;BME280;42803;55.762;38.084;2023-04-27T01:16:08;98833.03;;;6.45;100.00
53011;BME280;42803;55.762;38.084;2023-04-27T01:18:39;98826.72;;;6.41;100.00
53011;BME280;42803;55.762;38.084;2023-04-27T01:21:08;98823.19;;;6.41;100.00
53011;BME280;42803;55.762;38.084;2023-04-27T01:23:38;98822.44;;;6.42;100.00
53011;BME280;42803;55.762;38.084;2023-04-27T01:26:07;98816.63;;;6.34;100.00
53011;BME280;42803;55.762;38.084;2023-04-27T01:28:38;98819.09;;;6.22;100.00
53011;BME280;42803;55.762;38.084;2023-04-27T01:31:08;98827.16;;;6.15;100.00
53011;BME280;42803;55.762;38.084;2023-04-27T01:33:38;98828.44;;;6.10;100.00
53011;BME280;42803;55.762;38.084;2023-04-27T01:36:08;98835.97;;;5.97;100.00
53011;BME280;42803;55.762;38.084;2023-04-27T01:38:39;98837.34;;;5.83;100.00
53011;BME280;42803;55.762;38.084;2023-04-27T01:41:09;98830.38;;;5.82;100.00
53011;BME280;42803;55.762;38.084;2023-04-27T01:43:38;98833.22;;;5.95;100.00
53011;BME280;42803;55.762;38.084;2023-04-27T01:46:10;98829.06;;;6.18;100.00
53011;BME280;42803;55.762;38.084;2023-04-27T01:48:40;98832.41;;;6.37;100.00
53011;BME280;42803;55.762;38.084;2023-04-27T01:51:10;98844.19;;;6.44;100.00
53011;BME280;42803;55.762;38.084;2023-04-27T01:53:41;98846.41;;;6.39;100.00
53011;BME280;42803;55.762;38.084;2023-04-27T01:56:11;98837.63;;;6.27;100.00
53011;BME280;42803;55.762;38.084;2023-04-27T01:58:40;98845.66;;;6.20;100.00
53011;BME280;42803;55.762;38.084;2023-04-27T02:01:09;98844.34;;;6.35;100.00
53011;BME280;42803;55.762;38.084;2023-04-27T02:03:38;98847.88;;;6.68;100.00
53011;BME280;42803;55.762;38.084;2023-04-27T02:06:07;98850.59;;;7.01;100.00
53011;BME280;42803;55.762;38.084;2023-04-27T02:08:36;98854.47;;;7.28;100.00
53011;BME280;42803;55.762;38.084;2023-04-27T02:11:10;98853.78;;;7.41;100.00
53011;BME280;42803;55.762;38.084;2023-04-27T02:13:39;98848.44;;;7.62;100.00
53011;BME280;42803;55.762;38.084;2023-04-27T02:16:08;98847.09;;;7.67;100.00
53011;BME280;42803;55.762;38.084;2023-04-27T02:18:39;98846.22;;;7.78;100.00
53011;BME280;42803;55.762;38.084;2023-04-27T02:21:09;98854.44;;;7.94;100.00
53011;BME280;42803;55.762;38.084;2023-04-27T02:23:39;98852.34;;;8.24;100.00
53011;BME280;42803;55.762;38.084;2023-04-27T02:26:16;98855.13;;;8.72;100.00
53011;BME280;42803;55.762;38.084;2023-04-27T02:28:46;98862.19;;;9.22;100.00
53011;BME280;42803;55.762;38.084;2023-04-27T02:31:16;98844.94;;;9.47;100.00
53011;BME280;42803;55.762;38.084;2023-04-27T02:33:45;98850.84;;;9.70;100.00
53011;BME280;42803;55.762;38.084;2023-04-27T02:36:14;98854.09;;;10.17;100.00
53011;BME280;42803;55.762;38.084;2023-04-27T02:38:43;98856.63;;;10.54;100.00
53011;BME280;42803;55.762;38.084;2023-04-27T02:41:13;98848.88;;;11.09;100.00
53011;BME280;42803;55.762;38.084;2023-04-27T02:43:43;98861.75;;;11.19;100.00
53011;BME280;42803;55.762;38.084;2023-04-27T02:46:13;98869.28;;;10.61;100.00
53011;BME280;42803;55.762;38.084;2023-04-27T02:48:42;98858.59;;;10.07;100.00
53011;BME280;42803;55.762;38.084;2023-04-27T02:51:11;98873.28;;;9.68;100.00
53011;BME280;42803;55.762;38.084;2023-04-27T02:53:40;98875.75;;;9.41;100.00
53011;BME280;42803;55.762;38.084;2023-04-27T02:56:09;98882.22;;;9.23;100.00
53011;BME280;42803;55.762;38.084;2023-04-27T02:58:38;98881.19;;;9.33;100.00
53011;BME280;42803;55.762;38.084;2023-04-27T03:01:09;98887.47;;;9.60;100.00
53011;BME280;42803;55.762;38.084;2023-04-27T03:03:38;98883.88;;;9.83;100.00
53011;BME280;42803;55.762;38.084;2023-04-27T03:06:07;98887.22;;;9.93;100.00
53011;BME280;42803;55.762;38.084;2023-04-27T03:08:36;98887.44;;;9.96;100.00
53011;BME280;42803;55.762;38.084;2023-04-27T03:11:05;98892.44;;;9.93;100.00
53011;BME280;42803;55.762;38.084;2023-04-27T03:13:36;98894.78;;;10.02;100.00
53011;BME280;42803;55.762;38.084;2023-04-27T03:16:10;98896.63;;;10.16;100.00
53011;BME280;42803;55.762;38.084;2023-04-27T03:18:39;98905.16;;;10.14;100.00
53011;BME280;42803;55.762;38.084;2023-04-27T03:21:09;98911.84;;;10.10;100.00
53011;BME280;42803;55.762;38.084;2023-04-27T03:23:39;98910.84;;;10.08;100.00
53011;BME280;42803;55.762;38.084;2023-04-27T03:26:08;98913.94;;;10.02;100.00
53011;BME280;42803;55.762;38.084;2023-04-27T03:28:38;98908.03;;;10.05;100.00
53011;BME280;42803;55.762;38.084;2023-04-27T03:31:08;98910.59;;;10.17;100.00
53011;BME280;42803;55.762;38.084;2023-04-27T03:33:39;98909.31;;;10.23;100.00
53011;BME280;42803;55.762;38.084;2023-04-27T03:36:08;98914.59;;;10.37;100.00
53011;BME280;42803;55.762;38.084;2023-04-27T03:38:41;98911.72;;;10.59;100.00
53011;BME280;42803;55.762;38.084;2023-04-27T03:41:11;98918.91;;;10.88;100.00
53011;BME280;42803;55.762;38.084;2023-04-27T03:43:41;98920.41;;;11.11;100.00
53011;BME280;42803;55.762;38.084;2023-04-27T03:46:27;98924.22;;;11.16;100.00
53011;BME280;42803;55.762;38.084;2023-04-27T03:48:58;98923.63;;;11.20;100.00
53011;BME280;42803;55.762;38.084;2023-04-27T03:51:29;98921.19;;;11.36;100.00
53011;BME280;42803;55.762;38.084;2023-04-27T03:53:59;98922.78;;;11.47;100.00
53011;BME280;42803;55.762;38.084;2023-04-27T03:56:28;98928.00;;;11.47;100.00
53011;BME280;42803;55.762;38.084;2023-04-27T03:58:57;98926.53;;;11.38;100.00
53011;BME280;42803;55.762;38.084;2023-04-27T04:01:32;98928.25;;;11.37;100.00
53011;BME280;42803;55.762;38.084;2023-04-27T04:04:03;98932.75;;;11.40;100.00
53011;BME280;42803;55.762;38.084;2023-04-27T04:06:32;98935.22;;;11.52;100.00
53011;BME280;42803;55.762;38.084;2023-04-27T04:09:01;98928.78;;;11.60;100.00
53011;BME280;42803;55.762;38.084;2023-04-27T04:11:31;98925.25;;;11.59;100.00
53011;BME280;42803;55.762;38.084;2023-04-27T04:14:04;98939.84;;;11.69;100.00
53011;BME280;42803;55.762;38.084;2023-04-27T04:16:33;98936.81;;;11.76;100.00
53011;BME280;42803;55.762;38.084;2023-04-27T04:19:04;98939.59;;;11.92;100.00
53011;BME280;42803;55.762;38.084;2023-04-27T04:21:33;98943.09;;;12.06;100.00
53011;BME280;42803;55.762;38.084;2023-04-27T04:24:03;98949.16;;;12.20;100.00
53011;BME280;42803;55.762;38.084;2023-04-27T04:26:33;98938.41;;;12.15;99.33
53011;BME280;42803;55.762;38.084;2023-04-27T04:29:02;98943.66;;;12.15;98.79
53011;BME280;42803;55.762;38.084;2023-04-27T04:31:31;98944.75;;;12.19;97.05
53011;BME280;42803;55.762;38.084;2023-04-27T04:34:01;98947.69;;;12.38;96.32
53011;BME280;42803;55.762;38.084;2023-04-27T04:36:32;98950.06;;;12.49;93.87
53011;BME280;42803;55.762;38.084;2023-04-27T04:39:02;98947.72;;;12.68;93.67
53011;BME280;42803;55.762;38.084;2023-04-27T04:41:32;98947.19;;;12.88;91.89
53011;BME280;42803;55.762;38.084;2023-04-27T04:44:01;98955.03;;;13.03;89.18
53011;BME280;42803;55.762;38.084;2023-04-27T04:46:30;98948.63;;;13.28;88.25
53011;BME280;42803;55.762;38.084;2023-04-27T04:48:59;98950.13;;;13.39;87.29
53011;BME280;42803;55.762;38.084;2023-04-27T04:51:32;98951.81;;;13.53;86.59
53011;BME280;42803;55.762;38.084;2023-04-27T04:54:02;98954.88;;;13.61;86.01
53011;BME280;42803;55.762;38.084;2023-04-27T04:56:31;98956.97;;;13.67;85.97
53011;BME280;42803;55.762;38.084;2023-04-27T04:59:02;98953.94;;;13.75;85.52
53011;BME280;42803;55.762;38.084;2023-04-27T05:01:31;98957.47;;;13.92;83.91
53011;BME280;42803;55.762;38.084;2023-04-27T05:04:01;98962.00;;;14.11;84.45
53011;BME280;42803;55.762;38.084;2023-04-27T05:06:31;98954.72;;;14.22;83.14
53011;BME280;42803;55.762;38.084;2023-04-27T05:09:00;98953.50;;;14.31;82.65
53011;BME280;42803;55.762;38.084;2023-04-27T05:11:31;98953.66;;;14.34;82.80
53011;BME280;42803;55.762;38.084;2023-04-27T05:14:00;98962.63;;;14.54;82.69
53011;BME280;42803;55.762;38.084;2023-04-27T05:16:29;98961.66;;;14.86;80.93
53011;BME280;42803;55.762;38.084;2023-04-27T05:18:58;98966.38;;;15.10;79.78
53011;BME280;42803;55.762;38.084;2023-04-27T05:21:28;98971.78;;;15.13;77.87
53011;BME280;42803;55.762;38.084;2023-04-27T05:23:58;98964.41;;;15.06;76.37
53011;BME280;42803;55.762;38.084;2023-04-27T05:26:27;98973.75;;;15.17;77.18
53011;BME280;42803;55.762;38.084;2023-04-27T05:28:56;98962.78;;;15.44;76.72
53011;BME280;42803;55.762;38.084;2023-04-27T05:31:25;98968.22;;;15.47;75.80
53011;BME280;42803;55.762;38.084;2023-04-27T05:33:54;98965.78;;;15.51;74.77
53011;BME280;42803;55.762;38.084;2023-04-27T05:36:24;98969.16;;;15.65;74.26
53011;BME280;42803;55.762;38.084;2023-04-27T05:38:53;98967.03;;;15.76;73.34
53011;BME280;42803;55.762;38.084;2023-04-27T05:41:24;98968.19;;;15.82;72.82
53011;BME280;42803;55.762;38.084;2023-04-27T05:43:53;98963.09;;;15.86;72.99
53011;BME280;42803;55.762;38.084;2023-04-27T05:46:22;98963.56;;;16.14;72.34
53011;BME280;42803;55.762;38.084;2023-04-27T05:48:52;98968.28;;;16.41;70.59
53011;BME280;42803;55.762;38.084;2023-04-27T05:51:21;98965.94;;;16.47;68.82
53011;BME280;42803;55.762;38.084;2023-04-27T05:53:50;98963.69;;;16.37;68.77
53011;BME280;42803;55.762;38.084;2023-04-27T05:56:21;98964.81;;;16.42;69.67
53011;BME280;42803;55.762;38.084;2023-04-27T05:58:52;98969.03;;;16.57;68.52
53011;BME280;42803;55.762;38.084;2023-04-27T06:01:21;98964.97;;;16.64;67.25
53011;BME280;42803;55.762;38.084;2023-04-27T06:03:50;98970.84;;;16.78;65.88
53011;BME280;42803;55.762;38.084;2023-04-27T06:06:19;98965.91;;;16.86;66.65
53011;BME280;42803;55.762;38.084;2023-04-27T06:08:48;98964.78;;;16.79;67.74
53011;BME280;42803;55.762;38.084;2023-04-27T06:11:36;98966.75;;;16.85;69.16
53011;BME280;42803;55.762;38.084;2023-04-27T06:14:06;98972.09;;;16.86;68.63
53011;BME280;42803;55.762;38.084;2023-04-27T06:16:36;98966.81;;;16.86;68.74
53011;BME280;42803;55.762;38.084;2023-04-27T06:19:05;98971.88;;;16.81;69.59
53011;BME280;42803;55.762;38.084;2023-04-27T06:21:34;98978.75;;;16.78;69.69
53011;BME280;42803;55.762;38.084;2023-04-27T06:24:04;98978.53;;;16.93;68.74
53011;BME280;42803;55.762;38.084;2023-04-27T06:26:33;98974.94;;;16.91;64.49
53011;BME280;42803;55.762;38.084;2023-04-27T06:29:02;98982.16;;;16.95;65.69
53011;BME280;42803;55.762;38.084;2023-04-27T06:31:35;98984.47;;;17.08;66.30
53011;BME280;42803;55.762;38.084;2023-04-27T06:34:05;98990.91;;;17.15;65.09
53011;BME280;42803;55.762;38.084;2023-04-27T06:36:34;98986.28;;;17.30;62.69
53011;BME280;42803;55.762;38.084;2023-04-27T06:39:03;98989.63;;;17.47;62.30
53011;BME280;42803;55.762;38.084;2023-04-27T06:41:33;98987.81;;;17.67;61.86
53011;BME280;42803;55.762;38.084;2023-04-27T06:44:02;98995.25;;;17.75;62.67
53011;BME280;42803;55.762;38.084;2023-04-27T06:46:31;98999.63;;;17.75;62.72
53011;BME280;42803;55.762;38.084;2023-04-27T06:49:01;98994.94;;;17.69;62.68
53011;BME280;42803;55.762;38.084;2023-04-27T06:51:30;98995.91;;;17.71;61.68
53011;BME280;42803;55.762;38.084;2023-04-27T06:54:00;99003.16;;;17.75;61.47
53011;BME280;42803;55.762;38.084;2023-04-27T06:56:28;99000.75;;;17.82;60.78
53011;BME280;42803;55.762;38.084;2023-04-27T06:58:58;99003.78;;;17.91;59.89
53011;BME280;42803;55.762;38.084;2023-04-27T07:01:27;98990.91;;;18.00;60.13
53011;BME280;42803;55.762;38.084;2023-04-27T07:03:56;99001.78;;;18.08;59.54
53011;BME280;42803;55.762;38.084;2023-04-27T07:06:27;99005.69;;;18.17;59.02
53011;BME280;42803;55.762;38.084;2023-04-27T07:08:56;99001.59;;;18.25;58.65
53011;BME280;42803;55.762;38.084;2023-04-27T07:11:26;99001.78;;;18.30;58.67
53011;BME280;42803;55.762;38.084;2023-04-27T07:13:55;99006.16;;;18.30;57.80
53011;BME280;42803;55.762;38.084;2023-04-27T07:16:24;98997.03;;;18.44;58.79
53011;BME280;42803;55.762;38.084;2023-04-27T07:18:53;98999.41;;;18.60;58.18
53011;BME280;42803;55.762;38.084;2023-04-27T07:21:22;98996.88;;;18.63;57.25
53011;BME280;42803;55.762;38.084;2023-04-27T07:23:56;98992.44;;;18.62;56.10
53011;BME280;42803;55.762;38.084;2023-04-27T07:26:25;98993.50;;;18.67;56.50
53011;BME280;42803;55.762;38.084;2023-04-27T07:28:54;98992.09;;;18.77;56.31
53011;BME280;42803;55.762;38.084;2023-04-27T07:31:23;99002.06;;;18.84;56.32
53011;BME280;42803;55.762;38.084;2023-04-27T07:33:53;98998.53;;;18.84;54.08
53011;BME280;42803;55.762;38.084;2023-04-27T07:36:41;98998.75;;;18.90;54.00
53011;BME280;42803;55.762;38.084;2023-04-27T07:39:13;99004.97;;;18.92;53.77
53011;BME280;42803;55.762;38.084;2023-04-27T07:41:42;99004.03;;;18.90;54.41
53011;BME280;42803;55.762;38.084;2023-04-27T07:44:11;99006.00;;;18.95;53.24
53011;BME280;42803;55.762;38.084;2023-04-27T07:47:00;99002.22;;;19.13;53.62
53011;BME280;42803;55.762;38.084;2023-04-27T07:49:31;99014.91;;;19.23;53.66
53011;BME280;42803;55.762;38.084;2023-04-27T07:54:50;99009.94;;;19.32;52.04
53011;BME280;42803;55.762;38.084;2023-04-27T08:00:08;99006.56;;;19.36;51.62
53011;BME280;42803;55.762;38.084;2023-04-27T08:02:40;99014.91;;;19.48;52.05
53011;BME280;42803;55.762;38.084;2023-04-27T08:05:09;99016.88;;;19.54;51.29
53011;BME280;42803;55.762;38.084;2023-04-27T08:07:39;99012.78;;;19.38;50.61
53011;BME280;42803;55.762;38.084;2023-04-27T08:10:13;99015.28;;;19.34;51.40
53011;BME280;42803;55.762;38.084;2023-04-27T08:12:42;99008.59;;;19.45;50.06
53011;BME280;42803;55.762;38.084;2023-04-27T08:15:11;99002.63;;;19.51;50.04
53011;BME280;42803;55.762;38.084;2023-04-27T08:17:41;99005.81;;;19.66;51.06
53011;BME280;42803;55.762;38.084;2023-04-27T08:20:11;99008.75;;;19.75;50.49
53011;BME280;42803;55.762;38.084;2023-04-27T08:22:40;99006.84;;;19.69;50.59
53011;BME280;42803;55.762;38.084;2023-04-27T08:25:09;99002.22;;;19.91;50.29
53011;BME280;42803;55.762;38.084;2023-04-27T08:27:40;98999.38;;;19.85;49.95
53011;BME280;42803;55.762;38.084;2023-04-27T08:32:57;98995.81;;;20.11;51.08
53011;BME280;42803;55.762;38.084;2023-04-27T08:35:26;98990.03;;;19.96;49.33
53011;BME280;42803;55.762;38.084;2023-04-27T08:40:43;98992.03;;;20.33;49.04
53011;BME280;42803;55.762;38.084;2023-04-27T08:43:50;98991.78;;;20.24;48.46
53011;BME280;42803;55.762;38.084;2023-04-27T08:46:38;98993.22;;;20.43;49.21
53011;BME280;42803;55.762;38.084;2023-04-27T08:49:08;98989.94;;;20.50;48.84
53011;BME280;42803;55.762;38.084;2023-04-27T08:51:39;98990.66;;;20.46;48.56
53011;BME280;42803;55.762;38.084;2023-04-27T08:54:09;98994.84;;;20.68;47.97
53011;BME280;42803;55.762;38.084;2023-04-27T08:56:38;98989.50;;;20.65;47.47
53011;BME280;42803;55.762;38.084;2023-04-27T08:59:14;98998.44;;;20.68;47.50
53011;BME280;42803;55.762;38.084;2023-04-27T09:01:45;98996.69;;;20.69;47.59
53011;BME280;42803;55.762;38.084;2023-04-27T09:04:16;99000.91;;;20.62;48.94
53011;BME280;42803;55.762;38.084;2023-04-27T09:06:46;99002.59;;;20.60;48.47
53011;BME280;42803;55.762;38.084;2023-04-27T09:09:23;98997.03;;;20.83;47.53
53011;BME280;42803;55.762;38.084;2023-04-27T09:11:53;98993.16;;;21.02;48.16
53011;BME280;42803;55.762;38.084;2023-04-27T09:14:24;98995.53;;;20.91;47.78
53011;BME280;42803;55.762;38.084;2023-04-27T09:16:54;98998.44;;;20.68;47.72
53011;BME280;42803;55.762;38.084;2023-04-27T09:19:27;98992.34;;;20.73;47.41
53011;BME280;42803;55.762;38.084;2023-04-27T09:22:08;98991.94;;;20.89;47.44
53011;BME280;42803;55.762;38.084;2023-04-27T09:24:38;98989.44;;;20.95;46.84
53011;BME280;42803;55.762;38.084;2023-04-27T09:27:18;98986.94;;;21.33;46.69
53011;BME280;42803;55.762;38.084;2023-04-27T09:29:50;98980.00;;;21.38;46.59
53011;BME280;42803;55.762;38.084;2023-04-27T09:32:19;98987.50;;;21.54;46.87
53011;BME280;42803;55.762;38.084;2023-04-27T09:34:49;98980.47;;;21.23;45.60
53011;BME280;42803;55.762;38.084;2023-04-27T09:37:18;98979.06;;;21.04;46.36
53011;BME280;42803;55.762;38.084;2023-04-27T09:39:47;98985.59;;;20.84;46.76
53011;BME280;42803;55.762;38.084;2023-04-27T09:42:17;98985.59;;;21.17;47.09
53011;BME280;42803;55.762;38.084;2023-04-27T09:44:47;98982.53;;;21.68;46.92
53011;BME280;42803;55.762;38.084;2023-04-27T09:47:17;98975.47;;;21.69;45.50
53011;BME280;42803;55.762;38.084;2023-04-27T09:49:46;98985.53;;;21.47;45.78
53011;BME280;42803;55.762;38.084;2023-04-27T09:52:17;98986.63;;;21.55;46.02
53011;BME280;42803;55.762;38.084;2023-04-27T09:54:46;98983.53;;;21.37;45.73
53011;BME280;42803;55.762;38.084;2023-04-27T09:57:22;98988.19;;;21.14;45.77
53011;BME280;42803;55.762;38.084;2023-04-27T10:00:05;98988.03;;;21.09;46.81
53011;BME280;42803;55.762;38.084;2023-04-27T10:03:06;98980.97;;;21.41;45.65
53011;BME280;42803;55.762;38.084;2023-04-27T10:05:56;98980.00;;;22.10;44.96
53011;BME280;42803;55.762;38.084;2023-04-27T10:08:34;98979.97;;;22.48;45.47
53011;BME280;42803;55.762;38.084;2023-04-27T10:11:12;98984.84;;;23.15;44.16
53011;BME280;42803;55.762;38.084;2023-04-27T10:13:50;98972.97;;;23.44;43.20
53011;BME280;42803;55.762;38.084;2023-04-27T10:16:21;98970.38;;;23.50;42.87
53011;BME280;42803;55.762;38.084;2023-04-27T10:18:53;98981.78;;;23.40;42.57
53011;BME280;42803;55.762;38.084;2023-04-27T10:21:23;98980.75;;;23.32;42.93
53011;BME280;42803;55.762;38.084;2023-04-27T10:23:53;98971.59;;;23.18;41.90
53011;BME280;42803;55.762;38.084;2023-04-27T10:26:25;98971.00;;;23.32;42.12
53011;BME280;42803;55.762;38.084;2023-04-27T10:28:59;98969.06;;;23.74;42.66
53011;BME280;42803;55.762;38.084;2023-04-27T10:31:34;98964.84;;;23.90;41.28
53011;BME280;42803;55.762;38.084;2023-04-27T10:34:08;98964.63;;;23.76;42.17
53011;BME280;42803;55.762;38.084;2023-04-27T10:36:38;98963.19;;;23.43;42.07
53011;BME280;42803;55.762;38.084;2023-04-27T10:39:18;98970.09;;;23.32;42.38
53011;BME280;42803;55.762;38.084;2023-04-27T10:42:03;98963.41;;;23.05;42.87
53011;BME280;42803;55.762;38.084;2023-04-27T10:44:34;98963.63;;;23.19;42.50
53011;BME280;42803;55.762;38.084;2023-04-27T10:47:12;98969.38;;;23.42;42.26
53011;BME280;42803;55.762;38.084;2023-04-27T10:49:44;98967.91;;;23.61;41.56
53011;BME280;42803;55.762;38.084;2023-04-27T10:52:13;98967.34;;;23.79;41.03
53011;BME280;42803;55.762;38.084;2023-04-27T10:54:44;98962.63;;;23.64;40.79
53011;BME280;42803;55.762;38.084;2023-04-27T10:57:14;98973.50;;;22.79;41.74
53011;BME280;42803;55.762;38.084;2023-04-27T10:59:47;98972.19;;;23.01;42.28
53011;BME280;42803;55.762;38.084;2023-04-27T11:02:24;98965.47;;;22.78;42.33
53011;BME280;42803;55.762;38.084;2023-04-27T11:04:55;98970.03;;;22.82;41.94
53011;BME280;42803;55.762;38.084;2023-04-27T11:07:26;98966.47;;;23.28;40.99
53011;BME280;42803;55.762;38.084;2023-04-27T11:09:57;98963.34;;;23.54;41.67
53011;BME280;42803;55.762;38.084;2023-04-27T11:12:26;98973.44;;;23.70;40.97
53011;BME280;42803;55.762;38.084;2023-04-27T11:14:58;98969.13;;;23.80;41.11
53011;BME280;42803;55.762;38.084;2023-04-27T11:17:28;98962.97;;;23.82;40.93
53011;BME280;42803;55.762;38.084;2023-04-27T11:19:59;98966.13;;;23.62;40.99
53011;BME280;42803;55.762;38.084;2023-04-27T11:22:30;98970.19;;;23.38;41.28
53011;BME280;42803;55.762;38.084;2023-04-27T11:24:59;98977.28;;;23.36;41.73
53011;BME280;42803;55.762;38.084;2023-04-27T11:27:36;98982.41;;;22.81;42.50
53011;BME280;42803;55.762;38.084;2023-04-27T11:30:18;98994.69;;;21.95;44.25
53011;BME280;42803;55.762;38.084;2023-04-27T11:35:36;99005.88;;;20.82;47.06
53011;BME280;42803;55.762;38.084;2023-04-27T11:38:06;99006.91;;;20.00;49.26
53011;BME280;42803;55.762;38.084;2023-04-27T11:40:35;99012.13;;;19.69;50.50
53011;BME280;42803;55.762;38.084;2023-04-27T11:43:11;99019.91;;;19.39;51.54
53011;BME280;42803;55.762;38.084;2023-04-27T11:45:43;99018.44;;;18.98;53.03
53011;BME280;42803;55.762;38.084;2023-04-27T11:48:31;99016.13;;;18.83;53.52
53011;BME280;42803;55.762;38.084;2023-04-27T11:51:02;99021.03;;;18.50;54.43
53011;BME280;42803;55.762;38.084;2023-04-27T11:53:33;99030.91;;;18.32;55.21
53011;BME280;42803;55.762;38.084;2023-04-27T11:56:05;99028.88;;;18.02;56.35
53011;BME280;42803;55.762;38.084;2023-04-27T11:58:35;99030.38;;;17.53;60.47
53011;BME280;42803;55.762;38.084;2023-04-27T12:01:05;99025.91;;;17.32;62.32
53011;BME280;42803;55.762;38.084;2023-04-27T12:03:34;99026.16;;;17.59;63.63
53011;BME280;42803;55.762;38.084;2023-04-27T12:06:06;99023.03;;;18.11;62.75
53011;BME280;42803;55.762;38.084;2023-04-27T12:08:55;99019.66;;;19.08;61.99
53011;BME280;42803;55.762;38.084;2023-04-27T12:11:26;99004.09;;;19.95;59.35
53011;BME280;42803;55.762;38.084;2023-04-27T12:13:55;99012.56;;;20.99;54.89
53011;BME280;42803;55.762;38.084;2023-04-27T12:16:26;99004.44;;;21.96;52.58
53011;BME280;42803;55.762;38.084;2023-04-27T12:18:55;99008.19;;;22.05;49.46
53011;BME280;42803;55.762;38.084;2023-04-27T12:21:26;99002.75;;;21.99;49.33
53011;BME280;42803;55.762;38.084;2023-04-27T12:23:55;99004.03;;;22.15;48.23
53011;BME280;42803;55.762;38.084;2023-04-27T12:26:42;99001.97;;;22.03;48.55
53011;BME280;42803;55.762;38.084;2023-04-27T12:29:12;99002.22;;;21.78;49.94
53011;BME280;42803;55.762;38.084;2023-04-27T12:31:41;98998.13;;;21.54;48.94
53011;BME280;42803;55.762;38.084;2023-04-27T12:34:11;98997.63;;;21.36;49.09
53011;BME280;42803;55.762;38.084;2023-04-27T12:36:42;98991.13;;;21.25;49.39
53011;BME280;42803;55.762;38.084;2023-04-27T12:41:59;98992.09;;;20.95;50.01
53011;BME280;42803;55.762;38.084;2023-04-27T12:44:29;98994.69;;;20.93;49.22
53011;BME280;42803;55.762;38.084;2023-04-27T12:46:58;98998.34;;;20.97;49.53
53011;BME280;42803;55.762;38.084;2023-04-27T12:49:27;98998.25;;;20.94;50.35
53011;BME280;42803;55.762;38.084;2023-04-27T12:51:58;98993.59;;;20.85;50.20
53011;BME280;42803;55.762;38.084;2023-04-27T12:54:27;98995.78;;;20.68;50.15
53011;BME280;42803;55.762;38.084;2023-04-27T12:59:44;98986.19;;;20.45;51.11
53011;BME280;42803;55.762;38.084;2023-04-27T13:02:13;98986.13;;;20.42;51.27
53011;BME280;42803;55.762;38.084;2023-04-27T13:04:43;98980.84;;;20.42;51.19
53011;BME280;42803;55.762;38.084;2023-04-27T13:07:14;98988.81;;;20.43;50.68
53011;BME280;42803;55.762;38.084;2023-04-27T13:09:43;98987.81;;;20.40;50.47
53011;BME280;42803;55.762;38.084;2023-04-27T13:15:00;98991.25;;;20.36;50.34
53011;BME280;42803;55.762;38.084;2023-04-27T13:17:31;98988.09;;;20.19;49.57
53011;BME280;42803;55.762;38.084;2023-04-27T13:20:00;98989.91;;;20.21;49.89
53011;BME280;42803;55.762;38.084;2023-04-27T13:22:33;98993.47;;;20.22;48.59
53011;BME280;42803;55.762;38.084;2023-04-27T13:25:03;98989.34;;;20.03;48.53
53011;BME280;42803;55.762;38.084;2023-04-27T13:27:49;98991.81;;;19.97;48.95
53011;BME280;42803;55.762;38.084;2023-04-27T13:30:18;98986.22;;;19.88;49.37